Villarrica, Chile
Current Conditions -  °F | °C
As of 5:00 AM on Monday 20 Oct 2014 (Local Time) from SCQP Reporting Station
Light Rain Light Rain  
Wind Chill: 54°   Ceiling: 9000
Heat Index: 54°   Visibility: 6mi
Dew Point: 52°   Wind: 12mph
Humidity: 94%   Direction: 30°NNE
Pressure: 30.06"   Gusts: NA
Location:  39.28°S, 72.23°W
Report Text: SCQP 200900Z 03010KT 9000 -RA FEW013 OVC090 12/11 Q1018
Loading
Personal Weather Stations






























Interactive Weather Map
Tropical Storm Tracking
New forecast layout! Learn more

10-Day Weather Forecast

Advertisements
Track Severe Weather on mobile